LFHP/LPY METAR and TAF weather

Enter ICAO airport designator
Station Type Date Time Source
LFHP METAR 2019/10/19 08:00 UTC NOAA

LFHP 190800Z AUTO 16005KT 100V210 CAVOK 15/11 Q1010


Station Type Date Time Source
LFHP Decoded METAR 2019/10/19 08:00 UTC NOAA

Le Puy, France (LFHP) 45-05N 003-46E 833M
Oct 19, 2019 - 04:00 AM EDT / 2019.10.19 0800 UTC
Wind: from the SSE (160 degrees) at 6 MPH (5 KT) (direction variable):0
Visibility: greater than 7 mile(s):0
Temperature: 59 F (15 C)
Dew Point: 51 F (11 C)
Relative Humidity: 76%
Pressure (altimeter): 29.83 in. Hg (1010 hPa)
ob: LFHP 190800Z AUTO 16005KT 100V210 CAVOK 15/11 Q1010
cycle: 8

Station Type Date Time Source
LFHP TAF UTC NOAA

Error!

Example: see airport list